createdAt,value
2019-05-15T00:00:51.847Z,101164.06
2019-05-15T00:03:23.441Z,101171.73
2019-05-15T00:05:54.942Z,101161.55
2019-05-15T00:08:30.022Z,101166.66
2019-05-15T00:11:01.626Z,101161.30
2019-05-15T00:13:34.501Z,101168.38
2019-05-15T00:16:08.455Z,101161.47
2019-05-15T00:18:43.740Z,101159.67
2019-05-15T00:21:15.248Z,101164.44
2019-05-15T00:23:49.264Z,101165.31
2019-05-15T00:26:20.991Z,101164.33
2019-05-15T00:28:52.616Z,101159.73
2019-05-15T00:31:24.309Z,101162.52
2019-05-15T00:34:00.009Z,101161.98
2019-05-15T00:36:32.899Z,101172.33
2019-05-15T00:39:08.264Z,101171.52
2019-05-15T00:41:50.344Z,101179.69
2019-05-15T00:44:12.610Z,101186.80
2019-05-15T00:46:45.278Z,101187.66
2019-05-15T00:49:18.856Z,101186.20
2019-05-15T00:51:51.219Z,101176.83
2019-05-15T00:54:22.775Z,101174.15
2019-05-15T00:56:54.390Z,101174.53
2019-05-15T00:59:30.074Z,101179.63
2019-05-15T01:02:00.200Z,101180.11
2019-05-15T01:04:31.748Z,101179.73
2019-05-15T01:07:03.341Z,101180.43
2019-05-15T01:09:34.881Z,101177.69
2019-05-15T01:12:08.890Z,101172.58
2019-05-15T01:14:40.496Z,101177.77
2019-05-15T01:17:13.115Z,101185.73
2019-05-15T01:19:44.821Z,101186.43
2019-05-15T01:22:16.376Z,101189.67
2019-05-15T01:24:48.554Z,101183.46
2019-05-15T01:27:20.503Z,101190.38
2019-05-15T01:29:52.020Z,101185.59
2019-05-15T01:32:24.552Z,101182.60
2019-05-15T01:34:58.088Z,101186.51
2019-05-15T01:37:29.786Z,101190.86
2019-05-15T01:40:01.363Z,101189.83
2019-05-15T01:42:32.886Z,101193.36
2019-05-15T01:45:05.766Z,101193.99
2019-05-15T01:47:39.031Z,101193.52
2019-05-15T01:50:12.128Z,101190.66
2019-05-15T01:52:43.729Z,101186.80
2019-05-15T01:55:15.376Z,101192.80
2019-05-15T01:57:48.701Z,101192.00
2019-05-15T02:00:20.774Z,101196.82
2019-05-15T02:02:52.384Z,101197.92
2019-05-15T02:05:23.943Z,101195.63
2019-05-15T02:07:55.510Z,101201.08
2019-05-15T02:10:29.210Z,101200.59
2019-05-15T02:13:00.339Z,101203.35
2019-05-15T02:15:31.975Z,101204.95
2019-05-15T02:18:03.522Z,101214.39
2019-05-15T02:20:35.181Z,101207.54
2019-05-15T02:23:11.413Z,101209.38
2019-05-15T02:25:40.070Z,101211.56
2019-05-15T02:28:13.614Z,101203.75
2019-05-15T02:30:45.224Z,101197.62
2019-05-15T02:33:18.852Z,101202.83
2019-05-15T02:35:50.580Z,101210.94
2019-05-15T02:38:23.909Z,101210.53
2019-05-15T02:40:59.015Z,101210.76
2019-05-15T02:43:29.847Z,101210.06
2019-05-15T02:46:02.698Z,101209.33
2019-05-15T02:48:34.303Z,101208.41
2019-05-15T02:51:05.841Z,101206.68
2019-05-15T02:53:39.678Z,101211.50
2019-05-15T02:56:11.469Z,101211.56
2019-05-15T02:58:43.983Z,101208.98
2019-05-15T03:01:18.739Z,101203.17
2019-05-15T03:03:50.074Z,101206.97
2019-05-15T03:06:22.947Z,101201.33
2019-05-15T03:08:55.504Z,101200.36
2019-05-15T03:11:29.484Z,101207.00
2019-05-15T03:14:01.635Z,101209.65
2019-05-15T03:16:34.192Z,101209.36
2019-05-15T03:19:05.722Z,101207.67
2019-05-15T03:21:38.889Z,101207.54
2019-05-15T03:24:12.125Z,101206.04
2019-05-15T03:26:43.627Z,101201.28
2019-05-15T03:29:16.122Z,101204.03
2019-05-15T03:32:05.152Z,101199.45
2019-05-15T03:34:28.431Z,101202.73
2019-05-15T03:36:54.220Z,101205.93
2019-05-15T03:39:25.766Z,101202.91
2019-05-15T03:42:01.512Z,101205.04
2019-05-15T03:44:33.081Z,101200.97
2019-05-15T03:47:04.857Z,101195.68
2019-05-15T03:49:39.720Z,101200.73
2019-05-15T03:52:13.668Z,101199.63
2019-05-15T03:54:45.224Z,101206.53
2019-05-15T03:57:20.098Z,101208.03
2019-05-15T03:59:50.063Z,101204.58
2019-05-15T04:02:21.666Z,101209.63
2019-05-15T04:04:56.988Z,101206.94
2019-05-15T04:07:29.146Z,101210.08
2019-05-15T04:10:00.847Z,101210.27
2019-05-15T04:12:32.568Z,101216.61
2019-05-15T04:15:05.392Z,101207.15
2019-05-15T04:17:39.807Z,101211.71
2019-05-15T04:20:10.884Z,101207.78
2019-05-15T04:22:42.580Z,101205.24
2019-05-15T04:25:15.279Z,101199.33
2019-05-15T04:27:49.280Z,101206.84
2019-05-15T04:30:22.023Z,101207.34
2019-05-15T04:32:53.608Z,101214.58
2019-05-15T04:35:25.150Z,101213.08
2019-05-15T04:37:59.428Z,101227.28
2019-05-15T04:40:30.111Z,101219.23
2019-05-15T04:43:01.661Z,101224.65
2019-05-15T04:45:35.110Z,101233.27
2019-05-15T04:48:09.825Z,101222.33
2019-05-15T04:50:40.410Z,101223.05
2019-05-15T04:53:13.221Z,101225.45
2019-05-15T04:55:49.081Z,101223.92
2019-05-15T04:58:21.364Z,101216.72
2019-05-15T05:00:54.536Z,101230.19
2019-05-15T05:03:28.810Z,101232.05
2019-05-15T05:05:59.559Z,101240.41
2019-05-15T05:08:31.131Z,101235.69
2019-05-15T05:11:02.665Z,101247.78
2019-05-15T05:13:34.187Z,101249.20
2019-05-15T05:16:05.746Z,101252.70
2019-05-15T05:18:40.897Z,101249.23
2019-05-15T05:21:10.454Z,101250.86
2019-05-15T05:23:43.242Z,101250.89
2019-05-15T05:26:14.804Z,101254.41
2019-05-15T05:28:48.435Z,101257.48
2019-05-15T05:31:20.699Z,101259.22
2019-05-15T05:33:57.719Z,101262.09
2019-05-15T05:36:29.201Z,101259.39
2019-05-15T05:39:00.723Z,101264.09
2019-05-15T05:41:32.323Z,101262.42
2019-05-15T05:44:08.103Z,101259.28
2019-05-15T05:46:39.904Z,101259.14
2019-05-15T05:49:12.742Z,101253.63
2019-05-15T05:51:47.939Z,101257.92
2019-05-15T05:54:20.457Z,101251.48
2019-05-15T05:56:52.035Z,101250.19
2019-05-15T05:59:23.783Z,101254.63
2019-05-15T06:01:58.937Z,101254.65
2019-05-15T06:04:30.417Z,101248.64
2019-05-15T06:07:11.124Z,101248.39
2019-05-15T06:09:38.027Z,101253.91
2019-05-15T06:12:10.690Z,101253.53
2019-05-15T06:14:42.551Z,101250.89
2019-05-15T06:17:14.191Z,101250.94
2019-05-15T06:19:48.043Z,101256.00
2019-05-15T06:22:20.032Z,101265.27
2019-05-15T06:24:53.608Z,101260.26
2019-05-15T06:27:27.935Z,101256.09
2019-05-15T06:30:01.251Z,101261.47
2019-05-15T06:32:33.934Z,101259.05
2019-05-15T06:35:08.713Z,101261.55
2019-05-15T06:37:40.422Z,101259.41
2019-05-15T06:40:12.073Z,101257.25
2019-05-15T06:42:43.869Z,101259.58
2019-05-15T06:45:15.615Z,101266.61
2019-05-15T06:47:48.254Z,101265.33
2019-05-15T06:50:32.071Z,101253.61
2019-05-15T06:53:10.421Z,101252.55
2019-05-15T06:55:42.017Z,101258.44
2019-05-15T06:58:14.672Z,101254.63
2019-05-15T07:00:48.766Z,101254.31
2019-05-15T07:03:25.775Z,101246.83
2019-05-15T07:05:54.442Z,101251.59
2019-05-15T07:08:28.665Z,101253.34
2019-05-15T07:11:01.422Z,101255.67
2019-05-15T07:13:51.239Z,101248.16
2019-05-15T07:16:19.239Z,101253.76
2019-05-15T07:18:50.981Z,101254.50
2019-05-15T07:21:22.570Z,101257.50
2019-05-15T07:23:58.685Z,101259.99
2019-05-15T07:26:31.644Z,101259.41
2019-05-15T07:29:15.214Z,101257.73
2019-05-15T07:31:47.851Z,101262.14
2019-05-15T07:34:21.675Z,101250.84
2019-05-15T07:36:53.504Z,101251.23
2019-05-15T07:39:28.697Z,101254.11
2019-05-15T07:42:01.498Z,101257.19
2019-05-15T07:44:38.628Z,101258.91
2019-05-15T07:47:10.840Z,101259.38
2019-05-15T07:49:42.543Z,101266.53
2019-05-15T07:52:14.199Z,101250.28
2019-05-15T07:54:45.826Z,101251.48
2019-05-15T07:57:20.710Z,101254.66
2019-05-15T07:59:55.114Z,101254.63
2019-05-15T08:02:28.444Z,101262.84
2019-05-15T08:05:00.740Z,101260.95
2019-05-15T08:07:34.027Z,101262.25
2019-05-15T08:10:08.732Z,101258.45
2019-05-15T08:12:45.219Z,101257.98
2019-05-15T08:15:18.857Z,101251.05
2019-05-15T08:18:04.148Z,101257.02
2019-05-15T08:20:24.562Z,101255.05
2019-05-15T08:22:58.272Z,101251.91
2019-05-15T08:25:35.440Z,101248.00
2019-05-15T08:28:12.791Z,101250.31
2019-05-15T08:30:46.025Z,101250.81
2019-05-15T08:33:17.955Z,101243.05
2019-05-15T08:35:52.198Z,101246.98
2019-05-15T08:38:23.910Z,101246.17
2019-05-15T08:40:55.446Z,101250.50
2019-05-15T08:43:31.624Z,101250.05
2019-05-15T08:46:04.791Z,101253.20
2019-05-15T08:48:39.169Z,101252.62
2019-05-15T08:51:10.763Z,101257.70
2019-05-15T08:53:48.810Z,101255.45
2019-05-15T08:56:19.987Z,101251.92
2019-05-15T08:58:51.842Z,101257.92
2019-05-15T09:01:23.409Z,101260.09
2019-05-15T09:03:55.151Z,101259.61
2019-05-15T09:06:29.214Z,101261.13
2019-05-15T09:09:01.768Z,101255.57
2019-05-15T09:11:34.319Z,101250.31
2019-05-15T09:14:11.694Z,101248.52
2019-05-15T09:16:43.356Z,101248.23
2019-05-15T09:19:15.002Z,101248.30
2019-05-15T09:21:49.071Z,101250.52
2019-05-15T09:24:20.293Z,101253.11
2019-05-15T09:26:51.957Z,101251.74
2019-05-15T09:29:23.868Z,101253.45
2019-05-15T09:31:58.863Z,101252.66
2019-05-15T09:34:46.654Z,101243.50
2019-05-15T09:37:08.580Z,101243.77
2019-05-15T09:39:40.280Z,101243.53
2019-05-15T09:42:18.003Z,101246.89
2019-05-15T09:44:51.328Z,101246.72
2019-05-15T09:47:24.060Z,101245.92
2019-05-15T09:49:58.930Z,101250.81
2019-05-15T09:52:30.392Z,101250.00
2019-05-15T09:55:02.385Z,101244.30
2019-05-15T09:57:49.082Z,101245.61
2019-05-15T10:00:29.290Z,101253.73
2019-05-15T10:03:03.524Z,101263.52
2019-05-15T10:05:34.506Z,101251.34
2019-05-15T10:08:08.919Z,101256.58
2019-05-15T10:10:41.821Z,101256.73
2019-05-15T10:13:15.142Z,101264.91
2019-05-15T10:15:51.235Z,101264.41
2019-05-15T10:18:23.126Z,101257.33
2019-05-15T10:20:58.101Z,101256.44
2019-05-15T10:23:30.002Z,101258.47
2019-05-15T10:26:02.904Z,101251.89
2019-05-15T10:28:38.849Z,101250.28
2019-05-15T10:31:10.330Z,101250.61
2019-05-15T10:33:46.037Z,101251.25
2019-05-15T10:36:24.099Z,101247.26
2019-05-15T10:38:56.954Z,101250.27
2019-05-15T10:41:30.614Z,101247.85
2019-05-15T10:44:04.698Z,101251.26
2019-05-15T10:46:38.291Z,101245.31
2019-05-15T10:49:11.090Z,101250.84
2019-05-15T10:51:43.933Z,101243.98
2019-05-15T10:54:19.241Z,101240.16
2019-05-15T10:56:54.238Z,101242.42
2019-05-15T10:59:28.919Z,101238.72
2019-05-15T11:05:04.304Z,101234.12
2019-05-15T11:07:44.777Z,101233.52
2019-05-15T11:10:18.601Z,101241.36
2019-05-15T11:12:52.413Z,101241.75
2019-05-15T11:15:40.517Z,101242.48
2019-05-15T11:18:14.394Z,101241.42
2019-05-15T11:20:48.649Z,101246.48
2019-05-15T11:23:22.539Z,101236.52
2019-05-15T11:25:54.293Z,101235.97
2019-05-15T11:28:31.705Z,101231.39
2019-05-15T11:31:00.736Z,101232.41
2019-05-15T11:33:32.656Z,101226.03
2019-05-15T11:36:06.269Z,101226.03
2019-05-15T11:38:39.258Z,101232.04
2019-05-15T11:41:12.135Z,101238.84
2019-05-15T11:43:52.407Z,101235.83
2019-05-15T11:46:25.805Z,101228.59
2019-05-15T11:49:01.510Z,101227.91
2019-05-15T11:51:38.330Z,101230.12
2019-05-15T11:54:13.624Z,101224.30
2019-05-15T11:56:49.004Z,101230.28
2019-05-15T11:59:22.492Z,101223.05
2019-05-15T12:01:58.087Z,101215.69
2019-05-15T12:04:34.226Z,101225.02
2019-05-15T12:07:18.194Z,101217.95
2019-05-15T12:09:50.685Z,101212.88
2019-05-15T12:12:22.602Z,101213.52
2019-05-15T12:14:55.737Z,101210.80
2019-05-15T12:17:30.086Z,101202.92
2019-05-15T12:20:06.581Z,101200.70
2019-05-15T12:22:43.306Z,101199.95
2019-05-15T12:25:18.729Z,101205.64
2019-05-15T12:28:02.915Z,101211.21
2019-05-15T12:30:49.234Z,101213.94
2019-05-15T12:33:33.481Z,101204.49
2019-05-15T12:36:10.203Z,101207.76
2019-05-15T12:39:13.734Z,101203.33
2019-05-15T13:00:42.593Z,101195.41
2019-05-15T13:03:18.202Z,101192.15
2019-05-15T13:05:54.755Z,101191.56
2019-05-15T13:08:29.074Z,101190.09
2019-05-15T13:11:00.032Z,101184.78
2019-05-15T13:13:33.299Z,101186.02
2019-05-15T13:16:05.100Z,101191.34
2019-05-15T13:18:38.651Z,101188.16
2019-05-15T13:21:12.873Z,101191.84
2019-05-15T13:23:47.999Z,101199.83
2019-05-15T13:26:23.820Z,101201.97
2019-05-15T13:28:52.657Z,101196.06
2019-05-15T13:31:28.402Z,101202.54
2019-05-15T13:34:08.120Z,101200.20
2019-05-15T13:37:09.170Z,101199.39
2019-05-15T13:39:58.530Z,101197.89
2019-05-15T13:42:42.057Z,101195.33
2019-05-15T13:48:40.984Z,101185.96
2019-05-15T13:51:12.833Z,101191.72
2019-05-15T13:53:44.929Z,101184.11
2019-05-15T13:56:18.208Z,101183.39
2019-05-15T13:58:50.471Z,101189.98
2019-05-15T14:01:28.624Z,101186.41
2019-05-15T14:36:08.446Z,101201.61
2019-05-15T14:40:28.563Z,101193.64
2019-05-15T14:43:12.679Z,101191.34
2019-05-15T14:45:49.380Z,101192.56
2019-05-15T14:48:28.504Z,101196.81
2019-05-15T14:51:01.114Z,101187.02
2019-05-15T14:56:48.709Z,101184.11
2019-05-15T14:59:21.277Z,101183.69
2019-05-15T15:01:58.147Z,101182.70
2019-05-15T15:04:39.245Z,101179.92
2019-05-15T15:07:48.796Z,101173.41
2019-05-15T15:11:17.800Z,101177.09
2019-05-15T15:15:24.566Z,101174.61
2019-05-15T15:17:29.721Z,101179.14
2019-05-15T15:24:35.367Z,101181.08
2019-05-15T15:27:13.232Z,101181.80
2019-05-15T15:29:50.020Z,101179.71
2019-05-15T15:32:28.389Z,101179.71
2019-05-15T15:35:15.773Z,101175.78
2019-05-15T15:37:51.516Z,101178.56
2019-05-15T15:40:28.114Z,101176.58
2019-05-15T15:43:00.315Z,101170.40
2019-05-15T15:45:39.066Z,101176.02
2019-05-15T15:48:21.695Z,101177.72
2019-05-15T15:50:58.585Z,101176.93
2019-05-15T15:53:39.061Z,101182.20
2019-05-15T15:56:19.804Z,101181.73
2019-05-15T15:59:21.667Z,101179.71
2019-05-15T16:01:53.999Z,101173.98
2019-05-15T16:04:25.638Z,101179.14
2019-05-15T16:06:59.989Z,101169.00
2019-05-15T16:09:31.723Z,101172.45
2019-05-15T16:12:03.582Z,101170.42
2019-05-15T16:14:35.362Z,101164.79
2019-05-15T16:17:08.629Z,101170.86
2019-05-15T16:20:03.739Z,101168.30
2019-05-15T16:22:48.714Z,101161.73
2019-05-15T16:25:21.224Z,101167.21
2019-05-15T16:27:57.796Z,101167.94
2019-05-15T16:30:31.672Z,101161.48
2019-05-15T16:33:10.742Z,101161.63
2019-05-15T16:35:43.080Z,101166.11
2019-05-15T16:38:19.256Z,101168.38
2019-05-15T16:41:05.376Z,101171.12
2019-05-15T16:43:48.538Z,101171.33
2019-05-15T16:46:20.352Z,101173.54
2019-05-15T16:48:52.243Z,101175.19
2019-05-15T16:51:24.104Z,101176.39
2019-05-15T16:53:58.906Z,101176.11
2019-05-15T16:56:36.383Z,101179.55
2019-05-15T16:59:07.591Z,101181.56
2019-05-15T17:01:41.192Z,101179.17
2019-05-15T17:04:14.207Z,101176.05
2019-05-15T17:06:49.406Z,101171.77
2019-05-15T17:09:22.444Z,101176.70
2019-05-15T17:11:55.269Z,101175.66
2019-05-15T17:14:28.792Z,101174.67
2019-05-15T17:17:00.714Z,101177.41
2019-05-15T17:19:32.847Z,101175.20
2019-05-15T17:22:09.250Z,101172.13
2019-05-15T17:24:39.951Z,101174.45
2019-05-15T17:27:12.461Z,101180.14
2019-05-15T17:29:44.190Z,101175.59
2019-05-15T17:32:18.417Z,101171.31
2019-05-15T17:34:51.342Z,101174.95
2019-05-15T17:37:24.661Z,101178.42
2019-05-15T17:39:58.914Z,101179.52
2019-05-15T17:42:31.150Z,101179.62
2019-05-15T17:45:04.278Z,101183.80
2019-05-15T17:47:38.841Z,101181.56
2019-05-15T17:50:13.123Z,101191.54
2019-05-15T17:52:45.149Z,101187.20
2019-05-15T17:55:20.237Z,101184.23
2019-05-15T17:57:56.657Z,101191.00
2019-05-15T18:00:28.663Z,101198.00
2019-05-15T18:03:00.419Z,101207.56
2019-05-15T18:05:32.047Z,101207.53
2019-05-15T18:08:04.106Z,101204.30
2019-05-15T18:10:35.982Z,101206.02
2019-05-15T18:13:09.292Z,101204.73
2019-05-15T18:15:42.128Z,101213.33
2019-05-15T18:18:14.178Z,101213.16
2019-05-15T18:20:51.350Z,101211.05
2019-05-15T18:23:23.796Z,101212.72
2019-05-15T18:25:58.208Z,101207.18
2019-05-15T18:28:29.129Z,101213.30
2019-05-15T18:31:01.024Z,101208.11
2019-05-15T18:33:32.605Z,101205.69
2019-05-15T18:36:04.175Z,101201.64
2019-05-15T18:38:38.789Z,101211.84
2019-05-15T18:41:09.940Z,101216.44
2019-05-15T18:43:41.521Z,101217.84
2019-05-15T18:46:13.059Z,101219.67
2019-05-15T18:48:44.747Z,101222.91
2019-05-15T18:51:16.372Z,101218.29
2019-05-15T18:53:48.256Z,101220.13
2019-05-15T18:56:19.891Z,101218.70
2019-05-15T18:58:51.489Z,101221.86
2019-05-15T19:01:23.082Z,101220.52
2019-05-15T19:04:01.282Z,101222.08
2019-05-15T19:06:32.943Z,101221.75
2019-05-15T19:09:08.159Z,101220.55
2019-05-15T19:11:39.985Z,101221.11
2019-05-15T19:14:12.591Z,101217.34
2019-05-15T19:16:44.238Z,101221.29
2019-05-15T19:19:15.922Z,101221.66
2019-05-15T19:21:53.096Z,101217.02
2019-05-15T19:24:24.732Z,101220.48
2019-05-15T19:26:58.508Z,101220.70
2019-05-15T19:29:29.652Z,101225.61
2019-05-15T19:32:01.208Z,101226.09
2019-05-15T19:34:32.813Z,101225.91
2019-05-15T19:37:04.502Z,101224.80
2019-05-15T19:39:38.485Z,101224.12
2019-05-15T19:42:09.463Z,101223.10
2019-05-15T19:44:41.257Z,101226.41
2019-05-15T19:47:12.827Z,101224.87
2019-05-15T19:49:44.389Z,101220.66
2019-05-15T19:52:23.036Z,101214.78
2019-05-15T19:54:54.621Z,101221.05
2019-05-15T19:57:28.018Z,101220.09
2019-05-15T19:59:59.813Z,101223.00
2019-05-15T20:02:31.367Z,101222.11
2019-05-15T20:05:05.071Z,101216.92
2019-05-15T20:07:38.988Z,101216.16
2019-05-15T20:10:11.667Z,101217.34
2019-05-15T20:12:43.618Z,101218.11
2019-05-15T20:15:15.581Z,101218.52
2019-05-15T20:17:48.202Z,101218.31
2019-05-15T20:20:19.938Z,101215.05
2019-05-15T20:22:51.802Z,101222.67
2019-05-15T20:25:23.473Z,101226.43
2019-05-15T20:27:54.949Z,101223.69
2019-05-15T20:30:28.566Z,101226.67
2019-05-15T20:33:00.166Z,101220.53
2019-05-15T20:35:33.894Z,101220.16
2019-05-15T20:38:09.060Z,101217.47
2019-05-15T20:40:40.622Z,101226.15
2019-05-15T20:43:15.877Z,101222.14
2019-05-15T20:45:48.385Z,101220.67
2019-05-15T20:48:25.189Z,101220.30
2019-05-15T20:50:58.918Z,101218.36
2019-05-15T20:53:34.457Z,101210.62
2019-05-15T20:56:08.192Z,101208.28
2019-05-15T20:58:39.350Z,101210.89
2019-05-15T21:01:10.936Z,101211.78
2019-05-15T21:03:42.473Z,101215.21
2019-05-15T21:06:14.056Z,101207.45
2019-05-15T21:08:48.584Z,101216.20
2019-05-15T21:11:23.251Z,101214.20
2019-05-15T21:13:54.821Z,101213.22
2019-05-15T21:16:27.982Z,101207.76
2019-05-15T21:19:00.303Z,101211.89
2019-05-15T21:21:34.128Z,101213.05
2019-05-15T21:24:05.693Z,101215.26
2019-05-15T21:26:38.234Z,101214.00
2019-05-15T21:29:09.857Z,101216.12
2019-05-15T21:31:49.030Z,101215.45
2019-05-15T21:34:36.688Z,101215.47
2019-05-15T21:36:54.355Z,101214.12
2019-05-15T21:39:29.879Z,101215.84
2019-05-15T21:42:03.047Z,101212.20
2019-05-15T21:44:34.692Z,101216.05
2019-05-15T21:47:08.088Z,101213.73
2019-05-15T21:49:42.573Z,101216.42
2019-05-15T21:52:18.535Z,101212.69
2019-05-15T21:54:50.970Z,101214.59
2019-05-15T21:57:35.686Z,101218.07
2019-05-15T22:00:00.747Z,101218.34
2019-05-15T22:02:34.556Z,101218.37
2019-05-15T22:05:08.644Z,101216.35
2019-05-15T22:07:40.370Z,101210.48
2019-05-15T22:10:20.050Z,101210.67
2019-05-15T22:12:53.335Z,101219.60
2019-05-15T22:15:24.996Z,101204.14
2019-05-15T22:17:56.688Z,101197.02
2019-05-15T22:20:30.505Z,101198.58
2019-05-15T22:23:01.665Z,101198.55
2019-05-15T22:25:33.236Z,101199.10
2019-05-15T22:28:05.193Z,101195.15
2019-05-15T22:30:38.964Z,101203.88
2019-05-15T22:33:10.923Z,101197.08
2019-05-15T22:35:44.043Z,101201.19
2019-05-15T22:38:17.955Z,101208.51
2019-05-15T22:40:48.909Z,101203.31
2019-05-15T22:43:23.852Z,101208.92
2019-05-15T22:45:55.395Z,101205.28
2019-05-15T22:48:28.681Z,101202.31
2019-05-15T22:51:00.484Z,101199.33
2019-05-15T22:53:32.288Z,101201.20
2019-05-15T22:56:03.909Z,101203.09
2019-05-15T22:58:38.655Z,101197.60
2019-05-15T23:01:10.505Z,101207.98
2019-05-15T23:03:42.170Z,101207.88
2019-05-15T23:06:13.768Z,101211.82
2019-05-15T23:08:45.377Z,101216.61
2019-05-15T23:11:18.224Z,101216.42
2019-05-15T23:13:51.222Z,101220.46
2019-05-15T23:16:28.253Z,101215.07
2019-05-15T23:18:59.599Z,101213.73
2019-05-15T23:21:31.156Z,101215.08
2019-05-15T23:24:02.737Z,101219.52
2019-05-15T23:26:34.262Z,101218.14
2019-05-15T23:29:08.065Z,101219.03
2019-05-15T23:31:45.819Z,101217.06
2019-05-15T23:34:18.696Z,101215.41
2019-05-15T23:36:50.466Z,101214.31
2019-05-15T23:39:23.026Z,101213.86
2019-05-15T23:41:58.459Z,101211.02
2019-05-15T23:44:31.121Z,101207.59
2019-05-15T23:47:02.695Z,101205.11
2019-05-15T23:49:34.248Z,101205.28
2019-05-15T23:52:05.897Z,101202.28
2019-05-15T23:54:38.534Z,101208.34
2019-05-15T23:57:10.287Z,101204.84
2019-05-15T23:59:47.633Z,101201.87
